Aérodrome :







RETROUVEZ-NOUS SUR...

 
LOGIN :

S'inscrire | Disclaimer

   EN    FR    IT 

 









Légende :    VFR   VFR Marginal   IFR   IFR Intensif   IFR Très Intensif
Visi : 
Plafond : 
>= 8 km
>= 3000ft
5 à 8 km
1000 à 3000 ft
1500m à 5 km
500 à 1000 ft
800 à 1500m
200 à 500 ft
< 800m
< 200 ft
Symboles :   Orages  Brouillard  Fortes neiges  Fortes précipitations  Vent > 20 kt






- Altitude de l'aérodrome : 1270 ft
- Code IATA : YMT


CYMT - Chapais

DERNIER METAR :
  • 261700Z AUTO 01007KT 330V030 9SM FEW180 M09/M14 A3017 RMK SLP251

METARs EXPIRÉS :
  • 261600Z AUTO 00000KT 9SM FEW170 SCT190 M12/M16 A3019 RMK SLP259
  • 261500Z AUTO 34005KT 9SM CLR M14/M17 A3019 RMK SLP259

TAF AMD TAF CYMT
Valide du 26 à 13h jusqu'au 27 à 01h UTC


261318Z 2613/2701 36005KT P6SM SKC
TEMPO 2613/2618 2SM IC
BECMG 2616/2618 03010KT RMK FCST BASED ON AUTO OBS. NXT FCST BY 261800Z



MET'MAP, la Météo Aéronautique d'un coup d'oeil ! - Copyright ORBIFLY Décembre 2007 - Disclaimer

ORBIFLY MET'MAP TEAM :

Programmation & Développement : Alexandra Zaïnal
Sur une idée originale de : Baudouin d'Aumeries
Assistance à la programmation : Marc-Olivier Méhu
Soutien technique & logistique : Manuel Goepfert

Contact : metmap@orbifly.com




SOURCES & CREDITS :

   NOAA